Time;durP1;ratioP1;P1;durP2;ratioP2;P2;SDS_P1;SDS_P2;PMS_P1;PMS_P2;Temp;Humidity;BMP_temperature;BMP_pressure;BME280_temperature;BME280_humidity;BME280_pressure;Samples;Min_cycle;Max_cycle;Signal;HPM_P1;HPM_P2
2023/04/18 00:01:13;;;;;;;17.15;13.10;;;7.20;99.90;;;;;;6127889;23;20448;-81
2023/04/18 00:03:39;;;;;;;16.73;13.85;;;7.20;99.90;;;;;;6103172;23;20072;-82
2023/04/18 00:06:05;;;;;;;16.80;14.23;;;7.20;99.90;;;;;;6128268;23;20009;-81
2023/04/18 00:08:32;;;;;;;19.50;14.68;;;7.10;99.90;;;;;;6103415;23;20021;-81
2023/04/18 00:10:57;;;;;;;17.67;14.25;;;7.00;99.90;;;;;;6103589;23;20013;-82
2023/04/18 00:13:23;;;;;;;21.40;14.23;;;7.00;99.90;;;;;;6154350;23;20026;-81
2023/04/18 00:15:53;;;;;;;19.38;14.25;;;7.00;99.90;;;;;;6127825;23;20345;-81
2023/04/18 00:18:19;;;;;;;21.10;14.82;;;7.30;99.90;;;;;;6127228;23;20013;-80
2023/04/18 00:20:45;;;;;;;19.67;14.07;;;6.90;99.90;;;;;;6154327;23;20017;-81
2023/04/18 00:23:12;;;;;;;17.38;13.38;;;6.90;99.90;;;;;;6154151;23;20048;-80
2023/04/18 00:25:39;;;;;;;19.10;14.02;;;6.90;99.90;;;;;;6154168;23;20040;-80
2023/04/18 00:28:04;;;;;;;18.60;14.77;;;6.80;99.90;;;;;;6127668;23;20010;-81
2023/04/18 00:30:30;;;;;;;20.83;13.80;;;6.80;99.90;;;;;;6127654;23;20009;-80
2023/04/18 00:32:56;;;;;;;18.65;14.25;;;6.80;99.90;;;;;;6127126;23;20013;-81
2023/04/18 00:35:21;;;;;;;20.80;13.25;;;6.80;99.90;;;;;;6103251;23;20395;-81
2023/04/18 00:37:47;;;;;;;14.80;13.23;;;6.80;99.90;;;;;;6127927;23;20297;-81
2023/04/18 00:40:13;;;;;;;16.10;13.48;;;7.00;99.90;;;;;;6127475;23;20025;-80
2023/04/18 00:42:39;;;;;;;17.30;13.80;;;6.70;99.90;;;;;;6102867;23;20344;-81
2023/04/18 00:45:05;;;;;;;19.80;12.85;;;7.10;99.90;;;;;;6127327;23;20010;-81
2023/04/18 00:47:30;;;;;;;16.85;12.57;;;6.70;99.90;;;;;;6127509;23;20012;-81
2023/04/18 00:49:56;;;;;;;16.90;12.75;;;6.70;99.90;;;;;;6127395;23;20010;-81
2023/04/18 00:52:25;;;;;;;14.75;12.10;;;6.80;99.90;;;;;;6127389;23;20448;-80
2023/04/18 00:54:51;;;;;;;15.60;12.05;;;6.70;99.90;;;;;;6122619;23;20014;-80
2023/04/18 00:57:17;;;;;;;17.00;12.68;;;6.60;99.90;;;;;;6121853;23;20048;-81
2023/04/18 00:59:45;;;;;;;13.43;12.00;;;6.60;99.90;;;;;;6098149;23;20105;-81
2023/04/18 01:02:11;;;;;;;15.23;11.55;;;6.60;99.90;;;;;;6121881;23;20009;-80
2023/04/18 01:04:37;;;;;;;15.90;11.75;;;6.60;99.90;;;;;;6122529;23;20128;-81
2023/04/18 01:07:03;;;;;;;17.02;11.50;;;6.50;99.90;;;;;;6124386;23;20010;-81
2023/04/18 01:09:32;;;;;;;13.50;12.07;;;6.60;99.90;;;;;;6122605;23;20045;-81
2023/04/18 01:11:57;;;;;;;18.00;11.65;;;6.60;99.90;;;;;;6097947;23;20010;-80
2023/04/18 01:14:23;;;;;;;14.45;11.43;;;6.80;99.90;;;;;;6124373;23;20014;-80
2023/04/18 01:16:49;;;;;;;13.63;11.30;;;6.50;99.90;;;;;;6123783;23;20033;-81
2023/04/18 01:19:18;;;;;;;14.57;11.63;;;6.50;99.90;;;;;;6124168;23;20022;-81
2023/04/18 01:21:43;;;;;;;15.57;11.57;;;6.50;99.90;;;;;;6124204;23;20017;-81
2023/04/18 01:24:11;;;;;;;16.25;11.98;;;6.50;99.90;;;;;;6122765;23;20329;-82
2023/04/18 01:26:37;;;;;;;12.90;11.23;;;6.50;99.90;;;;;;6124336;23;20010;-81
2023/04/18 01:29:03;;;;;;;16.65;11.93;;;6.50;99.90;;;;;;6122655;23;20014;-81
2023/04/18 01:31:29;;;;;;;20.10;12.68;;;6.50;99.90;;;;;;6122185;23;20020;-81
2023/04/18 01:33:54;;;;;;;15.65;11.65;;;6.50;99.90;;;;;;6122162;23;20045;-81
2023/04/18 01:36:20;;;;;;;18.50;12.68;;;6.40;99.90;;;;;;6124080;23;20033;-81
2023/04/18 01:38:46;;;;;;;15.90;13.52;;;6.50;99.90;;;;;;6097591;23;20014;-80
2023/04/18 01:41:11;;;;;;;17.38;13.45;;;6.50;99.90;;;;;;6097645;23;20088;-81
2023/04/18 01:43:37;;;;;;;18.05;14.40;;;6.50;99.90;;;;;;6097136;23;20010;-80
2023/04/18 01:46:02;;;;;;;22.48;12.45;;;6.60;99.90;;;;;;6122100;23;20345;-81
2023/04/18 01:48:28;;;;;;;17.38;12.30;;;6.70;99.90;;;;;;6122449;23;20013;-81
2023/04/18 01:50:53;;;;;;;16.27;13.43;;;6.70;99.90;;;;;;6122015;23;20021;-80
2023/04/18 01:53:19;;;;;;;18.15;13.18;;;6.70;99.90;;;;;;6097926;23;20014;-81
2023/04/18 01:55:47;;;;;;;15.68;12.95;;;6.90;99.90;;;;;;6126665;23;20476;-81
2023/04/18 01:58:15;;;;;;;17.42;13.13;;;6.70;99.90;;;;;;6101708;23;20024;-80
2023/04/18 02:00:40;;;;;;;19.13;13.48;;;6.70;99.90;;;;;;6153500;23;20396;-81
2023/04/18 02:03:06;;;;;;;16.95;13.23;;;6.80;99.90;;;;;;6126910;23;20013;-80
2023/04/18 02:05:31;;;;;;;18.65;14.52;;;6.80;99.90;;;;;;6153380;23;20021;-81
2023/04/18 02:07:58;;;;;;;19.65;14.18;;;6.80;99.90;;;;;;6102266;23;20013;-81
2023/04/18 02:10:23;;;;;;;19.23;13.45;;;6.80;99.90;;;;;;6126910;23;20016;-80
2023/04/18 02:12:49;;;;;;;18.20;13.90;;;6.80;99.90;;;;;;6125986;23;20322;-80
2023/04/18 02:15:14;;;;;;;20.10;14.02;;;6.90;99.90;;;;;;6126779;23;20333;-80
2023/04/18 02:17:40;;;;;;;17.00;13.93;;;6.80;99.90;;;;;;6126837;23;20021;-80
2023/04/18 02:20:07;;;;;;;17.60;13.88;;;6.80;99.90;;;;;;6126637;23;20096;-80
2023/04/18 02:22:32;;;;;;;18.17;14.02;;;6.80;99.90;;;;;;6126716;23;20333;-80
2023/04/18 02:24:58;;;;;;;17.15;13.25;;;6.80;99.90;;;;;;6126803;23;20020;-80
2023/04/18 02:27:24;;;;;;;16.83;13.48;;;6.80;99.90;;;;;;6152491;23;20084;-80
2023/04/18 02:29:49;;;;;;;22.42;14.00;;;6.80;99.90;;;;;;6126541;23;20013;-81
2023/04/18 02:32:15;;;;;;;17.58;13.15;;;6.90;99.90;;;;;;6102287;23;20010;-81
2023/04/18 02:34:40;;;;;;;18.02;13.55;;;6.90;99.90;;;;;;6152507;23;20021;-82
2023/04/18 02:37:06;;;;;;;15.77;13.18;;;7.50;99.90;;;;;;6126986;23;20022;-80
2023/04/18 02:39:31;;;;;;;18.35;12.70;;;6.90;99.90;;;;;;6126657;23;20350;-80
2023/04/18 02:41:57;;;;;;;15.88;12.52;;;6.90;99.90;;;;;;6125941;23;20025;-80
2023/04/18 02:44:23;;;;;;;15.23;12.35;;;6.90;99.90;;;;;;6153103;23;20016;-80
2023/04/18 02:46:48;;;;;;;16.65;12.65;;;7.00;99.90;;;;;;6126526;23;20006;-80
2023/04/18 02:49:14;;;;;;;14.02;11.88;;;7.00;99.90;;;;;;6102209;23;20359;-80
2023/04/18 02:51:40;;;;;;;15.52;11.25;;;7.00;99.90;;;;;;6126633;23;20092;-81
2023/04/18 02:54:05;;;;;;;16.00;11.38;;;7.00;99.90;;;;;;6102269;23;20013;-80
2023/04/18 02:56:31;;;;;;;15.27;12.50;;;7.00;99.90;;;;;;6121044;23;20036;-81
2023/04/18 02:58:56;;;;;;;14.30;11.68;;;7.00;99.90;;;;;;6121871;23;20014;-81
2023/04/18 03:01:22;;;;;;;13.93;11.48;;;7.00;99.90;;;;;;6123668;23;20013;-81
2023/04/18 03:03:47;;;;;;;13.35;11.20;;;7.70;99.90;;;;;;6121657;23;20010;-80
2023/04/18 03:06:13;;;;;;;13.30;11.23;;;7.00;99.90;;;;;;6097208;23;20105;-81
2023/04/18 03:08:39;;;;;;;15.52;12.05;;;7.10;99.90;;;;;;6121682;23;20081;-80
2023/04/18 03:11:05;;;;;;;15.90;11.48;;;7.00;99.90;;;;;;6096603;23;20014;-81
2023/04/18 03:13:31;;;;;;;14.60;11.07;;;7.00;99.90;;;;;;6121641;23;20349;-81
2023/04/18 03:15:57;;;;;;;13.77;10.50;;;7.00;99.90;;;;;;6121869;23;20018;-81
2023/04/18 03:18:23;;;;;;;12.55;10.80;;;7.00;99.90;;;;;;6121296;23;20326;-81
2023/04/18 03:20:48;;;;;;;14.43;10.35;;;7.00;99.90;;;;;;6098963;23;20014;-81
2023/04/18 03:23:14;;;;;;;12.63;10.18;;;7.00;99.90;;;;;;6123890;23;20029;-80
2023/04/18 03:25:39;;;;;;;14.05;11.27;;;7.00;99.90;;;;;;6123335;23;20386;-81
2023/04/18 03:28:05;;;;;;;13.35;10.63;;;7.00;99.90;;;;;;6125471;23;20439;-81
2023/04/18 03:30:31;;;;;;;15.15;10.93;;;7.00;99.90;;;;;;6123540;23;20371;-80
2023/04/18 03:32:57;;;;;;;13.80;10.63;;;7.20;99.90;;;;;;6125467;23;20010;-80
2023/04/18 03:35:23;;;;;;;13.95;10.98;;;7.00;99.90;;;;;;6125471;23;20026;-80
2023/04/18 03:37:48;;;;;;;13.43;11.30;;;7.00;99.90;;;;;;6125449;23;20017;-81
2023/04/18 03:40:14;;;;;;;12.98;10.48;;;7.50;99.90;;;;;;6124551;23;20018;-81
2023/04/18 03:42:40;;;;;;;12.95;10.07;;;7.00;99.90;;;;;;6125297;23;20052;-80
2023/04/18 03:45:06;;;;;;;13.27;10.35;;;7.00;99.90;;;;;;6123210;23;20014;-81
2023/04/18 03:47:32;;;;;;;14.57;10.30;;;7.00;99.90;;;;;;6124818;23;20442;-81
2023/04/18 03:49:57;;;;;;;15.30;10.05;;;7.10;99.90;;;;;;6123253;23;20025;-80
2023/04/18 03:52:23;;;;;;;13.88;9.40;;;7.10;99.90;;;;;;6125186;23;20020;-80
2023/04/18 03:54:49;;;;;;;11.35;9.82;;;7.10;99.90;;;;;;6129808;23;20009;-80
2023/04/18 03:57:14;;;;;;;11.48;9.75;;;7.10;99.90;;;;;;6128056;23;20017;-80
2023/04/18 03:59:40;;;;;;;12.60;9.68;;;7.10;99.90;;;;;;6103608;23;20013;-81
2023/04/18 04:02:06;;;;;;;12.57;9.18;;;7.10;99.90;;;;;;6154639;23;20012;-80
2023/04/18 04:04:31;;;;;;;14.18;9.85;;;7.10;99.90;;;;;;6128162;23;20009;-81
2023/04/18 04:06:57;;;;;;;12.05;9.45;;;7.20;99.90;;;;;;6127994;23;20024;-81
2023/04/18 04:09:23;;;;;;;12.20;9.23;;;7.10;99.90;;;;;;6153882;23;20013;-80
2023/04/18 04:11:49;;;;;;;11.93;8.70;;;7.20;99.90;;;;;;6127895;23;20017;-81
2023/04/18 04:14:14;;;;;;;11.75;8.98;;;7.20;99.90;;;;;;6154659;23;20072;-80
2023/04/18 04:16:40;;;;;;;13.35;8.93;;;7.20;99.90;;;;;;6103695;23;20015;-81
2023/04/18 04:19:06;;;;;;;12.20;9.13;;;7.20;99.90;;;;;;6127921;23;20385;-80
2023/04/18 04:21:31;;;;;;;11.95;8.80;;;7.20;99.90;;;;;;6128163;23;20014;-81
2023/04/18 04:23:57;;;;;;;12.10;8.95;;;7.20;99.90;;;;;;6127331;23;20020;-82
2023/04/18 04:26:24;;;;;;;13.35;9.15;;;7.20;99.90;;;;;;6128041;23;20349;-81
2023/04/18 04:28:52;;;;;;;10.77;9.13;;;7.20;99.90;;;;;;6128356;23;20048;-82
2023/04/18 04:31:18;;;;;;;11.80;9.52;;;7.70;99.90;;;;;;6127856;23;20010;-81
2023/04/18 04:33:43;;;;;;;11.80;8.77;;;7.20;99.90;;;;;;6127866;23;20063;-81
2023/04/18 04:36:09;;;;;;;11.52;8.77;;;7.30;99.90;;;;;;6127702;23;20013;-81
2023/04/18 04:38:39;;;;;;;13.65;9.50;;;7.30;99.90;;;;;;6127099;23;20468;-81
2023/04/18 04:41:06;;;;;;;11.27;8.57;;;7.20;99.90;;;;;;6127962;23;20022;-81
2023/04/18 04:43:32;;;;;;;12.00;9.35;;;7.20;99.90;;;;;;6127596;23;20013;-81
2023/04/18 04:45:58;;;;;;;12.50;9.48;;;7.20;99.90;;;;;;6128151;23;20021;-82
2023/04/18 04:48:24;;;;;;;11.20;8.90;;;7.10;99.90;;;;;;6127940;23;20025;-81
2023/04/18 04:51:07;;;;;;;11.95;8.98;;;7.10;99.90;;;;;;6154449;23;20014;-82
2023/04/18 04:53:34;;;;;;;11.38;9.38;;;7.40;99.90;;;;;;6127454;23;20018;-81
2023/04/18 04:55:59;;;;;;;12.40;9.63;;;7.10;99.90;;;;;;6098140;23;20014;-81
2023/04/18 04:58:25;;;;;;;11.63;8.45;;;7.10;99.90;;;;;;6124706;23;20144;-81
2023/04/18 05:00:51;;;;;;;11.45;9.15;;;7.10;99.90;;;;;;6123349;23;20336;-82
2023/04/18 05:03:17;;;;;;;17.30;10.45;;;7.10;99.90;;;;;;6124834;23;20016;-81
2023/04/18 05:05:43;;;;;;;11.52;9.52;;;7.10;99.90;;;;;;6098457;23;20021;-81
2023/04/18 05:08:09;;;;;;;11.75;9.70;;;7.10;99.90;;;;;;6122257;23;20010;-81
2023/04/18 05:10:35;;;;;;;14.40;10.25;;;7.60;99.90;;;;;;6098284;23;20033;-81
2023/04/18 05:13:02;;;;;;;14.75;10.35;;;7.30;99.90;;;;;;6122953;23;20022;-81
2023/04/18 05:15:28;;;;;;;13.15;11.45;;;7.10;99.90;;;;;;6122534;23;20434;-81
2023/04/18 05:17:54;;;;;;;12.60;11.05;;;7.20;99.90;;;;;;6122353;23;20014;-81
2023/04/18 05:20:19;;;;;;;13.45;11.05;;;7.20;99.90;;;;;;6122395;23;20457;-81
2023/04/18 05:22:45;;;;;;;14.77;11.60;;;7.20;99.90;;;;;;6097719;23;20010;-80
2023/04/18 05:25:11;;;;;;;14.23;11.07;;;7.20;99.90;;;;;;6097997;23;20384;-81
2023/04/18 05:27:37;;;;;;;14.57;10.80;;;7.20;99.90;;;;;;6122448;23;20121;-81
2023/04/18 05:30:03;;;;;;;14.38;11.23;;;7.30;99.90;;;;;;6122156;23;20093;-81
2023/04/18 05:32:28;;;;;;;13.20;11.77;;;7.30;99.90;;;;;;6124219;23;20014;-82
2023/04/18 05:34:54;;;;;;;13.85;11.35;;;7.40;99.90;;;;;;6122209;23;20025;-81
2023/04/18 05:37:21;;;;;;;17.50;11.95;;;7.30;99.90;;;;;;6121612;23;20056;-81
2023/04/18 05:39:46;;;;;;;13.32;11.10;;;7.80;99.90;;;;;;6123972;23;20085;-81
2023/04/18 05:42:12;;;;;;;16.35;12.25;;;7.40;99.90;;;;;;6124013;23;20461;-81
2023/04/18 05:44:38;;;;;;;16.13;12.30;;;7.40;99.90;;;;;;6124031;23;20072;-81
2023/04/18 05:47:06;;;;;;;13.27;11.88;;;7.40;99.90;;;;;;6122533;23;20345;-81
2023/04/18 05:49:32;;;;;;;15.82;13.10;;;7.50;99.90;;;;;;6123697;23;20014;-81
2023/04/18 05:51:58;;;;;;;16.35;13.18;;;7.50;99.90;;;;;;6097031;23;20025;-81
2023/04/18 05:54:26;;;;;;;15.07;12.68;;;7.50;99.90;;;;;;6121922;23;20014;-80
2023/04/18 05:56:52;;;;;;;16.70;12.48;;;7.60;99.90;;;;;;6102403;23;20025;-81
2023/04/18 05:59:19;;;;;;;14.85;13.25;;;7.60;99.90;;;;;;6153287;23;20035;-81
2023/04/18 06:01:45;;;;;;;15.52;13.38;;;7.70;99.90;;;;;;6126737;23;20408;-81
2023/04/18 06:04:11;;;;;;;16.42;13.05;;;7.70;99.90;;;;;;6126840;23;20017;-82
2023/04/18 06:06:37;;;;;;;15.95;12.85;;;7.90;99.90;;;;;;6126151;23;20009;-82
2023/04/18 06:09:03;;;;;;;17.35;13.40;;;7.90;99.90;;;;;;6126360;23;20325;-82
2023/04/18 06:11:28;;;;;;;17.80;13.10;;;8.00;99.90;;;;;;6153324;23;20340;-81
2023/04/18 06:13:54;;;;;;;15.57;13.05;;;8.20;99.90;;;;;;6102186;23;20096;-82
2023/04/18 06:16:21;;;;;;;16.52;12.40;;;8.80;99.90;;;;;;6126575;23;20018;-82
2023/04/18 06:18:46;;;;;;;16.15;12.95;;;8.60;99.90;;;;;;6126838;23;20020;-81
2023/04/18 06:21:13;;;;;;;17.05;12.90;;;8.50;99.90;;;;;;6125943;23;20351;-82
2023/04/18 06:23:38;;;;;;;15.95;12.80;;;8.60;99.90;;;;;;6102070;23;20010;-81
2023/04/18 06:26:06;;;;;;;17.33;12.13;;;8.70;99.90;;;;;;6127079;23;20013;-81
2023/04/18 06:28:31;;;;;;;15.30;12.07;;;8.60;99.90;;;;;;6102453;23;20186;-82
2023/04/18 06:30:57;;;;;;;15.15;11.68;;;9.00;99.90;;;;;;6126490;23;20093;-82
2023/04/18 06:33:22;;;;;;;15.63;12.35;;;8.50;99.90;;;;;;6101996;23;20092;-81
2023/04/18 06:35:48;;;;;;;17.52;12.75;;;8.50;99.90;;;;;;6125881;23;20016;-82
2023/04/18 06:38:14;;;;;;;16.02;12.35;;;8.50;99.90;;;;;;6152256;23;20014;-82
2023/04/18 06:40:39;;;;;;;14.18;11.63;;;8.50;99.90;;;;;;6126347;23;20137;-82
2023/04/18 06:43:05;;;;;;;14.18;11.82;;;8.70;99.90;;;;;;6126335;23;20009;-82
2023/04/18 06:45:30;;;;;;;16.70;11.60;;;9.00;99.90;;;;;;6152905;23;20009;-81
2023/04/18 06:47:58;;;;;;;15.20;11.27;;;9.80;99.90;;;;;;6152859;23;20017;-81
2023/04/18 06:50:25;;;;;;;14.10;11.98;;;10.50;99.90;;;;;;6125757;23;20067;-82
2023/04/18 06:52:50;;;;;;;17.73;11.65;;;10.60;99.90;;;;;;6152789;23;20092;-82
2023/04/18 06:55:16;;;;;;;15.02;10.95;;;10.50;99.90;;;;;;6120688;23;20112;-82
2023/04/18 06:57:42;;;;;;;13.90;10.80;;;10.20;99.90;;;;;;6121855;23;20017;-81
2023/04/18 07:00:09;;;;;;;13.80;11.02;;;9.90;99.90;;;;;;6097086;23;20448;-82
2023/04/18 07:02:38;;;;;;;15.80;10.07;;;9.70;99.90;;;;;;6122905;23;20014;-81
2023/04/18 07:05:04;;;;;;;14.50;10.38;;;9.60;99.90;;;;;;6097087;23;20060;-82
2023/04/18 07:07:31;;;;;;;16.92;10.73;;;9.50;99.90;;;;;;6096879;23;20043;-81
2023/04/18 07:09:57;;;;;;;13.35;10.25;;;9.50;99.90;;;;;;6096881;23;20060;-82
2023/04/18 07:12:23;;;;;;;15.15;10.00;;;10.20;99.90;;;;;;6097254;23;20014;-81
2023/04/18 07:14:50;;;;;;;13.38;10.65;;;9.80;99.90;;;;;;6123340;23;20010;-82
2023/04/18 07:17:16;;;;;;;14.63;11.13;;;10.00;99.90;;;;;;6096446;23;20315;-81
2023/04/18 07:19:42;;;;;;;12.68;10.30;;;9.70;99.90;;;;;;6123194;23;20014;-82
2023/04/18 07:22:08;;;;;;;13.50;10.13;;;9.70;99.90;;;;;;6123237;23;20500;-81
2023/04/18 07:24:34;;;;;;;13.93;10.52;;;9.70;99.90;;;;;;6121551;23;20021;-81
2023/04/18 07:27:01;;;;;;;14.43;10.10;;;9.70;99.90;;;;;;6121189;23;20335;-81
2023/04/18 07:29:27;;;;;;;11.25;9.15;;;9.70;99.90;;;;;;6122788;23;20021;-81
2023/04/18 07:31:52;;;;;;;15.00;10.32;;;10.00;99.90;;;;;;6096080;23;20014;-82
2023/04/18 07:34:18;;;;;;;14.45;10.23;;;9.80;99.90;;;;;;6121425;23;20014;-82
2023/04/18 07:36:43;;;;;;;15.23;11.00;;;9.80;99.90;;;;;;6121581;23;20270;-81
2023/04/18 07:39:09;;;;;;;13.70;10.18;;;9.90;99.90;;;;;;6120835;23;20018;-82
2023/04/18 07:41:35;;;;;;;19.25;10.40;;;9.90;99.90;;;;;;6096940;23;20465;-81
2023/04/18 07:44:01;;;;;;;15.35;10.70;;;9.80;99.90;;;;;;6123275;23;20013;-81
2023/04/18 07:46:27;;;;;;;14.23;10.90;;;9.80;99.90;;;;;;6120615;23;20355;-81
2023/04/18 07:48:53;;;;;;;12.25;10.88;;;9.80;99.90;;;;;;6121146;23;20161;-81
2023/04/18 07:51:18;;;;;;;14.52;10.20;;;10.10;99.90;;;;;;6096765;23;20471;-81
2023/04/18 07:53:44;;;;;;;14.77;10.38;;;10.60;99.90;;;;;;6121365;23;20014;-82
2023/04/18 07:56:13;;;;;;;12.07;9.85;;;10.30;99.90;;;;;;6121220;23;20026;-81
2023/04/18 07:58:39;;;;;;;15.82;10.13;;;10.50;99.90;;;;;;6121037;23;20084;-82
2023/04/18 08:01:05;;;;;;;13.57;10.02;;;10.60;99.90;;;;;;6122508;23;20421;-81
2023/04/18 08:03:33;;;;;;;12.18;9.85;;;10.50;99.90;;;;;;6097281;23;20014;-81
2023/04/18 08:06:01;;;;;;;16.42;10.15;;;10.60;99.90;;;;;;6121953;23;20017;-81
2023/04/18 08:08:27;;;;;;;13.27;10.27;;;10.60;99.90;;;;;;6098384;23;20080;-81
2023/04/18 08:10:53;;;;;;;13.27;10.05;;;10.90;99.90;;;;;;6122915;23;20014;-81
2023/04/18 08:13:18;;;;;;;15.10;9.63;;;11.60;99.90;;;;;;6122750;23;20017;-83
2023/04/18 08:15:45;;;;;;;11.95;9.82;;;12.00;99.90;;;;;;6122184;23;20010;-81
2023/04/18 08:18:11;;;;;;;12.80;9.63;;;12.50;99.90;;;;;;6122576;23;20025;-82
2023/04/18 08:20:37;;;;;;;12.18;9.48;;;13.20;99.90;;;;;;6122881;23;20014;-82
2023/04/18 08:23:02;;;;;;;12.85;8.55;;;13.70;99.50;;;;;;6098227;23;20053;-82
2023/04/18 08:25:28;;;;;;;10.70;8.88;;;14.20;99.10;;;;;;6124862;23;20013;-81
2023/04/18 08:27:54;;;;;;;12.88;8.90;;;14.20;97.30;;;;;;6123173;23;20013;-82
2023/04/18 08:30:20;;;;;;;11.02;8.63;;;14.10;96.90;;;;;;6123998;23;20053;-81
2023/04/18 08:32:45;;;;;;;13.05;8.45;;;14.00;97.50;;;;;;6122438;23;20014;-82
2023/04/18 08:35:11;;;;;;;14.95;8.90;;;13.60;98.20;;;;;;6122537;23;20014;-82
2023/04/18 08:37:38;;;;;;;11.00;8.45;;;13.10;98.80;;;;;;6097905;23;20210;-81
2023/04/18 08:40:06;;;;;;;13.43;8.60;;;12.50;99.50;;;;;;6124362;23;20088;-82
2023/04/18 08:42:32;;;;;;;9.77;7.95;;;12.80;99.80;;;;;;6122640;23;20109;-81
2023/04/18 08:44:58;;;;;;;10.82;7.90;;;13.30;99.50;;;;;;6121788;23;20053;-82
2023/04/18 08:47:25;;;;;;;13.77;8.82;;;14.00;99.60;;;;;;6098023;23;20021;-82
2023/04/18 08:49:52;;;;;;;9.73;7.72;;;14.30;98.60;;;;;;6124279;23;20014;-82
2023/04/18 08:52:21;;;;;;;9.75;7.90;;;14.20;97.80;;;;;;6122242;23;20446;-81
2023/04/18 08:54:48;;;;;;;12.55;7.97;;;14.40;97.70;;;;;;6129172;23;20083;-82
2023/04/18 08:57:15;;;;;;;8.73;7.22;;;14.30;98.20;;;;;;6102665;23;20429;-82
2023/04/18 08:59:44;;;;;;;10.45;7.43;;;13.80;97.70;;;;;;6153007;23;20017;-82
2023/04/18 09:02:11;;;;;;;11.05;7.97;;;13.30;98.60;;;;;;6127458;23;20006;-83
2023/04/18 09:04:39;;;;;;;11.63;7.00;;;13.00;99.90;;;;;;6102474;23;20499;-82
2023/04/18 09:07:10;;;;;;;8.40;7.13;;;12.80;99.50;;;;;;6102662;23;20018;-82
2023/04/18 09:09:46;;;;;;;10.57;7.50;;;12.70;99.90;;;;;;6127050;23;20102;-82
2023/04/18 09:12:17;;;;;;;9.82;7.25;;;12.60;99.90;;;;;;6102626;23;20022;-82
2023/04/18 09:14:47;;;;;;;12.32;7.40;;;12.60;99.90;;;;;;6102185;23;20013;-81
2023/04/18 09:17:34;;;;;;;9.40;7.15;;;12.50;99.90;;;;;;6126661;23;20037;-81
2023/04/18 09:20:05;;;;;;;11.23;8.05;;;12.40;99.90;;;;;;6126974;23;20013;-81
2023/04/18 09:22:56;;;;;;;10.00;7.60;;;12.60;99.90;;;;;;6153675;23;20084;-82
2023/04/18 09:25:34;;;;;;;10.77;8.77;;;12.60;99.90;;;;;;6086444;23;20352;-82
2023/04/18 09:28:01;;;;;;;9.90;8.05;;;12.70;99.90;;;;;;6126623;23;20108;-82
2023/04/18 09:30:38;;;;;;;12.05;8.35;;;13.10;99.90;;;;;;6153279;23;20009;-81
2023/04/18 09:33:08;;;;;;;9.23;7.88;;;13.60;99.90;;;;;;6102507;23;20036;-81
2023/04/18 09:35:35;;;;;;;11.77;7.85;;;13.70;99.90;;;;;;6153432;23;20028;-82
2023/04/18 09:38:01;;;;;;;8.45;7.38;;;14.10;98.40;;;;;;6127006;23;20492;-81
2023/04/18 09:40:27;;;;;;;11.25;7.88;;;14.50;99.00;;;;;;6126513;23;20010;-81
2023/04/18 09:42:53;;;;;;;9.30;7.80;;;14.30;98.90;;;;;;6152781;23;20014;-82
2023/04/18 09:45:20;;;;;;;10.10;8.23;;;13.90;97.80;;;;;;6126775;23;20444;-82
2023/04/18 09:47:45;;;;;;;10.10;8.07;;;13.40;99.10;;;;;;6126799;23;20020;-82
2023/04/18 09:50:11;;;;;;;11.75;7.55;;;13.00;98.70;;;;;;6126833;23;20013;-81
2023/04/18 09:52:41;;;;;;;21.27;8.70;;;12.90;99.50;;;;;;6126855;23;20013;-81
2023/04/18 09:55:09;;;;;;;10.57;8.02;;;12.90;99.90;;;;;;6121877;23;20471;-81
2023/04/18 09:57:39;;;;;;;10.40;7.78;;;12.80;99.90;;;;;;6123164;23;20092;-81
2023/04/18 10:00:09;;;;;;;10.05;7.20;;;13.00;99.90;;;;;;6097430;23;20068;-82
2023/04/18 10:02:49;;;;;;;10.40;7.78;;;13.00;99.40;;;;;;6122328;23;20014;-82
2023/04/18 10:05:15;;;;;;;10.43;7.68;;;13.10;99.90;;;;;;6097454;23;20010;-82
2023/04/18 10:07:44;;;;;;;11.57;7.50;;;13.10;99.90;;;;;;6122227;23;20010;-82
2023/04/18 10:10:10;;;;;;;10.32;7.78;;;13.30;99.90;;;;;;6122009;23;20022;-81
2023/04/18 10:12:37;;;;;;;13.50;8.40;;;13.20;99.90;;;;;;6096903;23;20017;-82
2023/04/18 10:15:04;;;;;;;9.50;7.60;;;13.10;99.30;;;;;;6097318;23;20065;-81
2023/04/18 10:17:59;;;;;;;10.57;8.15;;;13.20;99.80;;;;;;6121679;23;20006;-82
2023/04/18 10:20:28;;;;;;;13.00;8.00;;;13.20;99.90;;;;;;6096648;23;20378;-82
2023/04/18 10:22:54;;;;;;;9.57;7.75;;;13.30;99.90;;;;;;6121461;23;20010;-81
2023/04/18 10:25:38;;;;;;;11.50;8.00;;;13.30;99.30;;;;;;6121545;23;20016;-81
2023/04/18 10:28:08;;;;;;;13.20;8.63;;;13.40;99.70;;;;;;6097305;23;20109;-81
2023/04/18 10:30:40;;;;;;;9.88;8.05;;;13.30;99.10;;;;;;6121456;23;20022;-82
2023/04/18 10:33:31;;;;;;;16.05;8.77;;;13.50;99.90;;;;;;6123551;23;20390;-81
2023/04/18 10:36:05;;;;;;;13.75;8.90;;;13.50;98.90;;;;;;6121462;23;20017;-81
2023/04/18 10:38:43;;;;;;;11.32;8.98;;;13.30;98.70;;;;;;6123409;23;20014;-81
2023/04/18 10:41:25;;;;;;;13.80;8.60;;;13.30;98.70;;;;;;6121048;23;20282;-81
2023/04/18 10:44:06;;;;;;;11.18;7.88;;;13.40;99.20;;;;;;6121485;23;20111;-82
2023/04/18 10:46:32;;;;;;;12.35;8.15;;;13.40;98.90;;;;;;6121528;23;20476;-81
2023/04/18 10:49:27;;;;;;;11.68;9.20;;;13.70;99.90;;;;;;6121395;23;20021;-83
2023/04/18 10:52:00;;;;;;;13.05;8.50;;;13.50;99.30;;;;;;6090856;23;20089;-81
2023/04/18 10:54:53;;;;;;;10.85;7.95;;;13.70;99.10;;;;;;6121969;23;20102;-81
2023/04/18 10:57:19;;;;;;;9.60;8.60;;;13.70;98.50;;;;;;6102098;23;20119;-82
2023/04/18 10:59:50;;;;;;;9.32;7.65;;;13.60;98.80;;;;;;6126122;23;20021;-81
2023/04/18 11:02:23;;;;;;;9.73;7.50;;;13.80;99.40;;;;;;6125950;23;20021;-82
2023/04/18 11:04:57;;;;;;;11.73;7.90;;;13.80;99.90;;;;;;6152280;23;20437;-81
2023/04/18 11:07:35;;;;;;;15.20;7.40;;;13.80;99.40;;;;;;6102178;23;20148;-82
2023/04/18 11:10:02;;;;;;;9.60;7.30;;;13.80;99.60;;;;;;6100975;23;20179;-82
2023/04/18 11:12:33;;;;;;;10.38;7.72;;;13.80;99.30;;;;;;6101637;23;20060;-81
2023/04/18 11:15:03;;;;;;;10.50;7.65;;;13.80;99.40;;;;;;6152362;23;20076;-82
2023/04/18 11:17:34;;;;;;;10.60;7.38;;;14.00;99.70;;;;;;6101304;23;20009;-82
2023/04/18 11:20:11;;;;;;;10.35;8.10;;;14.10;99.10;;;;;;6125839;23;20392;-81
2023/04/18 11:22:58;;;;;;;11.32;8.43;;;14.10;99.00;;;;;;6101322;23;20033;-82
2023/04/18 11:25:35;;;;;;;11.80;7.38;;;14.30;99.90;;;;;;6151740;23;20029;-82
2023/04/18 11:28:03;;;;;;;11.98;8.85;;;14.20;99.90;;;;;;6125829;23;20017;-82
2023/04/18 11:30:36;;;;;;;12.00;8.50;;;14.00;99.40;;;;;;6101628;23;20075;-82
2023/04/18 11:33:12;;;;;;;11.25;7.97;;;14.10;99.50;;;;;;6101702;23;20040;-81
2023/04/18 11:35:43;;;;;;;10.48;8.40;;;14.20;99.90;;;;;;6101674;23;20507;-82
2023/04/18 11:38:12;;;;;;;9.63;7.60;;;14.40;99.90;;;;;;6100844;23;20294;-82
2023/04/18 11:40:39;;;;;;;10.90;8.43;;;14.70;99.90;;;;;;6126682;23;20009;-82
2023/04/18 11:43:06;;;;;;;13.07;9.02;;;14.70;98.80;;;;;;6128028;23;20009;-83
2023/04/18 11:45:32;;;;;;;12.85;9.07;;;14.50;98.90;;;;;;6154034;23;20140;-82
2023/04/18 11:47:59;;;;;;;10.60;8.07;;;14.60;99.90;;;;;;6154520;23;20049;-82
2023/04/18 11:50:26;;;;;;;9.85;8.18;;;14.50;99.00;;;;;;6154433;23;20259;-81
2023/04/18 11:52:53;;;;;;;9.50;7.70;;;14.60;99.80;;;;;;6126971;23;20024;-81
2023/04/18 11:55:22;;;;;;;11.00;8.10;;;14.70;99.30;;;;;;6098396;23;20384;-81
2023/04/18 11:57:55;;;;;;;12.00;9.18;;;14.90;99.90;;;;;;6098642;23;20025;-81
2023/04/18 12:00:32;;;;;;;10.90;7.82;;;14.80;99.20;;;;;;6098546;23;20453;-82
2023/04/18 12:02:58;;;;;;;9.82;7.65;;;14.70;99.20;;;;;;6122861;23;20014;-82
2023/04/18 12:05:29;;;;;;;10.98;7.72;;;14.70;99.20;;;;;;6098307;23;20094;-82
2023/04/18 12:08:03;;;;;;;8.70;7.25;;;14.70;98.80;;;;;;6122076;23;20081;-81
2023/04/18 12:10:29;;;;;;;8.30;7.03;;;14.60;99.30;;;;;;6122911;23;20021;-82
2023/04/18 12:12:59;;;;;;;9.63;6.60;;;14.70;98.90;;;;;;6098421;23;20037;-82
2023/04/18 12:15:27;;;;;;;8.45;6.53;;;14.70;99.90;;;;;;6098273;23;20449;-82
2023/04/18 12:18:03;;;;;;;8.82;7.05;;;14.80;99.40;;;;;;6124533;23;20053;-82
2023/04/18 12:20:48;;;;;;;10.02;6.57;;;14.80;98.50;;;;;;6124560;23;20333;-82
2023/04/18 12:23:32;;;;;;;11.10;6.60;;;14.90;98.10;;;;;;6121913;23;20048;-82
2023/04/18 12:25:59;;;;;;;;;;;14.50;99.10;;;;;;6125055;23;20014;-83
2023/04/18 12:28:26;;;;;;;10.73;5.72;;;14.30;98.60;;;;;;6124545;23;20274;-82
2023/04/18 12:30:51;;;;;;;7.13;6.10;;;14.40;99.20;;;;;;6122317;23;20018;-82
2023/04/18 12:33:18;;;;;;;10.55;6.70;;;14.60;99.90;;;;;;6122966;23;20274;-82
2023/04/18 12:35:45;;;;;;;8.48;6.13;;;14.80;99.30;;;;;;6124350;23;20014;-82
2023/04/18 12:38:10;;;;;;;6.82;5.65;;;15.00;99.30;;;;;;6097592;23;20015;-81
2023/04/18 12:40:39;;;;;;;7.10;5.63;;;15.00;98.40;;;;;;6097730;23;20426;-82